JTA83 RJBB-ROIG
Flight info
| Callsign | JTA83 |
|---|---|
| Flight time | 2h 16m |
| Altitude | 36000 |
| Route | OBLUR Y236 MULAB Y75 SWANO Y26 YURIX Y62 GANAS Y576 DIANA |
| Aircraft | B738/M-SDE2E3FGHIRWXY/LB1 |
Departure
| Time | 2026-05-06 01:33 |
|---|---|
| Airport | Kansai International Airport (RJBB) |
Arrival
| Time | 2026-05-06 03:49 |
|---|---|
| Airport | New Ishigaki Airport (ROIG) |
| Time | Latitude | Longitude | Altitude | Speed | Heading |
|---|---|---|---|---|---|
| 2026-05-06 01:13 | 34.43191 | 135.24005 | 20 ft | 0 kts | 142° |
| 2026-05-06 01:20 | 34.43192 | 135.24003 | 21 ft | 2 kts | 141° |
| 2026-05-06 01:20 | 34.43203 | 135.23993 | 22 ft | 2 kts | 141° |
| 2026-05-06 01:21 | 34.43214 | 135.23982 | 21 ft | 2 kts | 142° |
| 2026-05-06 01:21 | 34.43225 | 135.23972 | 19 ft | 2 kts | 143° |
| 2026-05-06 01:21 | 34.43236 | 135.23963 | 19 ft | 2 kts | 147° |
| 2026-05-06 01:21 | 34.43245 | 135.23956 | 21 ft | 1 kts | 161° |
| 2026-05-06 01:22 | 34.43250 | 135.23954 | 20 ft | 1 kts | 182° |
| 2026-05-06 01:22 | 34.43256 | 135.23955 | 23 ft | 1 kts | 208° |
| 2026-05-06 01:22 | 34.43261 | 135.23959 | 19 ft | 1 kts | 222° |
| 2026-05-06 01:22 | 34.43265 | 135.23964 | 20 ft | 1 kts | 228° |
| 2026-05-06 01:23 | 34.43268 | 135.23968 | 21 ft | 0 kts | 230° |
| 2026-05-06 01:23 | 34.43267 | 135.23966 | 20 ft | 1 kts | 231° |
| 2026-05-06 01:24 | 34.43256 | 135.23950 | 19 ft | 4 kts | 231° |
| 2026-05-06 01:24 | 34.43230 | 135.23909 | 19 ft | 8 kts | 232° |
| 2026-05-06 01:24 | 34.43204 | 135.23842 | 20 ft | 9 kts | 266° |
| 2026-05-06 01:24 | 34.43200 | 135.23752 | 17 ft | 13 kts | 262° |
| 2026-05-06 01:25 | 34.43141 | 135.23652 | 15 ft | 16 kts | 230° |
| 2026-05-06 01:25 | 34.43065 | 135.23539 | 12 ft | 19 kts | 232° |
| 2026-05-06 01:25 | 34.42979 | 135.23405 | 11 ft | 20 kts | 233° |
| 2026-05-06 01:25 | 34.42919 | 135.23296 | 17 ft | 0 kts | 264° |
| 2026-05-06 01:26 | 34.42918 | 135.23296 | 17 ft | 0 kts | 264° |
| 2026-05-06 01:26 | 34.42918 | 135.23278 | 17 ft | 3 kts | 274° |
| 2026-05-06 01:26 | 34.42934 | 135.23244 | 18 ft | 7 kts | 314° |
| 2026-05-06 01:27 | 34.42989 | 135.23190 | 18 ft | 14 kts | 321° |
| 2026-05-06 01:27 | 34.43085 | 135.23096 | 21 ft | 21 kts | 321° |
| 2026-05-06 01:27 | 34.43204 | 135.22980 | 26 ft | 22 kts | 321° |
| 2026-05-06 01:27 | 34.43321 | 135.22866 | 30 ft | 21 kts | 321° |
| 2026-05-06 01:28 | 34.43439 | 135.22751 | 30 ft | 23 kts | 321° |
| 2026-05-06 01:28 | 34.43569 | 135.22624 | 29 ft | 24 kts | 321° |
| 2026-05-06 01:28 | 34.43706 | 135.22490 | 29 ft | 26 kts | 321° |
| 2026-05-06 01:28 | 34.43791 | 135.22362 | 31 ft | 17 kts | 253° |
| 2026-05-06 01:29 | 34.43713 | 135.22237 | 28 ft | 21 kts | 231° |
| 2026-05-06 01:29 | 34.43613 | 135.22088 | 28 ft | 24 kts | 230° |
| 2026-05-06 01:29 | 34.43502 | 135.21924 | 27 ft | 26 kts | 231° |
| 2026-05-06 01:29 | 34.43390 | 135.21759 | 30 ft | 25 kts | 230° |
| 2026-05-06 01:30 | 34.43287 | 135.21603 | 30 ft | 23 kts | 231° |
| 2026-05-06 01:30 | 34.43187 | 135.21455 | 29 ft | 23 kts | 231° |
| 2026-05-06 01:30 | 34.43078 | 135.21293 | 26 ft | 25 kts | 231° |
| 2026-05-06 01:30 | 34.42962 | 135.21119 | 23 ft | 28 kts | 231° |
| 2026-05-06 01:31 | 34.42842 | 135.20941 | 24 ft | 27 kts | 231° |
| 2026-05-06 01:31 | 34.42752 | 135.20785 | 29 ft | 20 kts | 263° |
| 2026-05-06 01:31 | 34.42832 | 135.20666 | 24 ft | 19 kts | 319° |
| 2026-05-06 01:31 | 34.42900 | 135.20665 | 24 ft | 8 kts | 49° |
| 2026-05-06 01:32 | 34.42929 | 135.20727 | 22 ft | 9 kts | 53° |
| 2026-05-06 01:32 | 34.42933 | 135.20732 | 22 ft | 0 kts | 51° |
| 2026-05-06 01:32 | 34.42965 | 135.20781 | 23 ft | 31 kts | 51° |
| 2026-05-06 01:32 | 34.43276 | 135.21244 | 26 ft | 109 kts | 51° |
| 2026-05-06 01:33 | 34.43898 | 135.22155 | 112 ft | 165 kts | 49° |
| 2026-05-06 01:33 | 34.44676 | 135.23284 | 784 ft | 182 kts | 49° |
| 2026-05-06 01:33 | 34.45761 | 135.24069 | 1735 ft | 192 kts | 9° |
| 2026-05-06 01:33 | 34.47086 | 135.23819 | 2505 ft | 198 kts | 332° |
| 2026-05-06 01:34 | 34.48085 | 135.22766 | 3373 ft | 193 kts | 299° |
| 2026-05-06 01:34 | 34.48449 | 135.21152 | 3877 ft | 205 kts | 263° |
| 2026-05-06 01:34 | 34.48097 | 135.19496 | 4580 ft | 199 kts | 248° |
| 2026-05-06 01:34 | 34.47606 | 135.17922 | 5239 ft | 208 kts | 246° |
| 2026-05-06 01:35 | 34.47004 | 135.16222 | 5672 ft | 228 kts | 245° |
| 2026-05-06 01:35 | 34.46367 | 135.14329 | 5974 ft | 253 kts | 247° |
| 2026-05-06 01:35 | 34.45756 | 135.12335 | 6676 ft | 260 kts | 249° |
| 2026-05-06 01:35 | 34.45159 | 135.10253 | 7411 ft | 265 kts | 250° |
| 2026-05-06 01:36 | 34.44575 | 135.08108 | 8116 ft | 271 kts | 250° |
| 2026-05-06 01:36 | 34.43996 | 135.05908 | 8839 ft | 277 kts | 251° |
| 2026-05-06 01:36 | 34.43416 | 135.03663 | 9595 ft | 282 kts | 251° |
| 2026-05-06 01:36 | 34.42832 | 135.01368 | 10281 ft | 289 kts | 251° |
| 2026-05-06 01:37 | 34.42222 | 134.98955 | 10503 ft | 312 kts | 252° |
| 2026-05-06 01:37 | 34.41564 | 134.96347 | 10672 ft | 335 kts | 252° |
| 2026-05-06 01:37 | 34.40863 | 134.93562 | 10832 ft | 356 kts | 252° |
| 2026-05-06 01:37 | 34.40068 | 134.90647 | 10970 ft | 374 kts | 246° |
| 2026-05-06 01:38 | 34.38830 | 134.87817 | 11288 ft | 385 kts | 239° |
| 2026-05-06 01:38 | 34.37441 | 134.85024 | 11878 ft | 388 kts | 238° |
| 2026-05-06 01:38 | 34.36048 | 134.82223 | 12570 ft | 389 kts | 239° |
| 2026-05-06 01:38 | 34.34665 | 134.79399 | 13219 ft | 391 kts | 239° |
| 2026-05-06 01:39 | 34.33293 | 134.76556 | 13863 ft | 393 kts | 239° |
| 2026-05-06 01:39 | 34.31918 | 134.73681 | 14457 ft | 396 kts | 240° |
| 2026-05-06 01:39 | 34.30538 | 134.70790 | 15081 ft | 396 kts | 240° |
| 2026-05-06 01:39 | 34.29158 | 134.67900 | 15740 ft | 397 kts | 240° |
| 2026-05-06 01:40 | 34.27699 | 134.65063 | 16361 ft | 399 kts | 234° |
| 2026-05-06 01:40 | 34.25939 | 134.62459 | 16934 ft | 401 kts | 230° |
| 2026-05-06 01:40 | 34.24089 | 134.59923 | 17485 ft | 404 kts | 229° |
| 2026-05-06 01:40 | 34.22238 | 134.57363 | 18024 ft | 406 kts | 230° |
| 2026-05-06 01:41 | 34.20398 | 134.54763 | 18556 ft | 408 kts | 231° |
| 2026-05-06 01:41 | 34.18578 | 134.52159 | 19139 ft | 405 kts | 231° |
| 2026-05-06 01:41 | 34.16773 | 134.49565 | 19768 ft | 402 kts | 231° |
| 2026-05-06 01:41 | 34.14980 | 134.46985 | 20334 ft | 400 kts | 231° |
| 2026-05-06 01:42 | 34.13196 | 134.44421 | 20907 ft | 397 kts | 232° |
| 2026-05-06 01:42 | 34.11420 | 134.41873 | 21472 ft | 395 kts | 232° |
| 2026-05-06 01:42 | 34.09659 | 134.39349 | 22027 ft | 393 kts | 232° |
| 2026-05-06 01:42 | 34.07903 | 134.36834 | 22518 ft | 392 kts | 232° |
| 2026-05-06 01:43 | 34.06159 | 134.34315 | 22969 ft | 390 kts | 232° |
| 2026-05-06 01:43 | 34.04424 | 134.31797 | 23361 ft | 390 kts | 233° |
| 2026-05-06 01:43 | 34.02691 | 134.29279 | 23750 ft | 390 kts | 233° |
| 2026-05-06 01:43 | 34.00958 | 134.26763 | 24023 ft | 391 kts | 233° |
| 2026-05-06 01:44 | 33.99215 | 134.24238 | 24241 ft | 393 kts | 232° |
| 2026-05-06 01:44 | 33.97462 | 134.21707 | 24458 ft | 394 kts | 232° |
| 2026-05-06 01:44 | 33.95704 | 134.19163 | 24636 ft | 397 kts | 232° |
| 2026-05-06 01:44 | 33.93931 | 134.16598 | 24873 ft | 399 kts | 232° |
| 2026-05-06 01:45 | 33.92152 | 134.14034 | 25122 ft | 399 kts | 232° |
| 2026-05-06 01:45 | 33.90394 | 134.11496 | 25261 ft | 403 kts | 232° |
| 2026-05-06 01:45 | 33.88602 | 134.08902 | 25487 ft | 403 kts | 232° |
| 2026-05-06 01:45 | 33.86819 | 134.06298 | 25685 ft | 404 kts | 232° |
| 2026-05-06 01:46 | 33.85017 | 134.03694 | 25878 ft | 405 kts | 233° |
| 2026-05-06 01:46 | 33.83211 | 134.01090 | 26027 ft | 407 kts | 232° |
| 2026-05-06 01:46 | 33.81394 | 133.98467 | 26154 ft | 409 kts | 232° |
| 2026-05-06 01:46 | 33.79572 | 133.95835 | 26320 ft | 410 kts | 232° |
| 2026-05-06 01:47 | 33.77751 | 133.93208 | 26473 ft | 410 kts | 231° |
| 2026-05-06 01:47 | 33.75967 | 133.90538 | 26623 ft | 409 kts | 234° |
| 2026-05-06 01:47 | 33.74290 | 133.87776 | 26804 ft | 408 kts | 235° |
| 2026-05-06 01:47 | 33.72642 | 133.85000 | 27003 ft | 408 kts | 235° |
| 2026-05-06 01:48 | 33.70991 | 133.82211 | 27060 ft | 410 kts | 235° |
| 2026-05-06 01:48 | 33.69330 | 133.79417 | 27218 ft | 410 kts | 235° |
| 2026-05-06 01:48 | 33.67672 | 133.76641 | 27489 ft | 409 kts | 234° |
| 2026-05-06 01:48 | 33.66008 | 133.73871 | 27753 ft | 408 kts | 234° |
| 2026-05-06 01:49 | 33.64345 | 133.71109 | 28006 ft | 408 kts | 234° |
| 2026-05-06 01:49 | 33.62689 | 133.68354 | 28242 ft | 408 kts | 234° |
| 2026-05-06 01:49 | 33.61033 | 133.65592 | 28500 ft | 407 kts | 234° |
| 2026-05-06 01:49 | 33.59379 | 133.62830 | 28775 ft | 406 kts | 234° |
| 2026-05-06 01:50 | 33.57735 | 133.60088 | 29058 ft | 405 kts | 234° |
| 2026-05-06 01:50 | 33.56090 | 133.57344 | 29333 ft | 405 kts | 234° |
| 2026-05-06 01:50 | 33.54446 | 133.54606 | 29614 ft | 404 kts | 234° |
| 2026-05-06 01:50 | 33.52807 | 133.51879 | 29863 ft | 404 kts | 234° |
| 2026-05-06 01:51 | 33.51163 | 133.49144 | 30113 ft | 404 kts | 234° |
| 2026-05-06 01:51 | 33.49519 | 133.46411 | 30372 ft | 404 kts | 234° |
| 2026-05-06 01:51 | 33.47878 | 133.43687 | 30662 ft | 402 kts | 234° |
| 2026-05-06 01:51 | 33.46247 | 133.40979 | 30991 ft | 399 kts | 234° |
| 2026-05-06 01:52 | 33.44627 | 133.38293 | 31352 ft | 396 kts | 234° |
| 2026-05-06 01:52 | 33.43021 | 133.35632 | 31675 ft | 395 kts | 234° |
| 2026-05-06 01:52 | 33.41416 | 133.33021 | 31927 ft | 394 kts | 232° |
| 2026-05-06 01:52 | 33.39713 | 133.30444 | 32199 ft | 394 kts | 231° |
| 2026-05-06 01:53 | 33.37958 | 133.27870 | 32511 ft | 392 kts | 231° |
| 2026-05-06 01:53 | 33.36257 | 133.25391 | 32814 ft | 391 kts | 231° |
| 2026-05-06 01:53 | 33.34536 | 133.22873 | 33020 ft | 391 kts | 231° |
| 2026-05-06 01:53 | 33.32819 | 133.20353 | 33263 ft | 390 kts | 231° |
| 2026-05-06 01:54 | 33.31116 | 133.17845 | 33504 ft | 389 kts | 231° |
| 2026-05-06 01:54 | 33.29417 | 133.15337 | 33768 ft | 387 kts | 231° |
| 2026-05-06 01:54 | 33.27726 | 133.12838 | 34048 ft | 386 kts | 231° |
| 2026-05-06 01:54 | 33.26039 | 133.10345 | 34291 ft | 385 kts | 231° |
| 2026-05-06 01:55 | 33.24357 | 133.07857 | 34539 ft | 384 kts | 231° |
| 2026-05-06 01:55 | 33.22682 | 133.05384 | 34795 ft | 383 kts | 231° |
| 2026-05-06 01:55 | 33.21010 | 133.02917 | 35057 ft | 381 kts | 231° |
| 2026-05-06 01:55 | 33.19348 | 133.00466 | 35387 ft | 378 kts | 232° |
| 2026-05-06 01:56 | 33.18255 | 132.98854 | 35589 ft | 376 kts | 232° |
| 2026-05-06 01:56 | 33.16609 | 132.96429 | 35836 ft | 375 kts | 232° |
| 2026-05-06 01:56 | 33.14969 | 132.94014 | 36054 ft | 375 kts | 232° |
| 2026-05-06 01:56 | 33.13329 | 132.91601 | 36162 ft | 375 kts | 232° |
| 2026-05-06 01:57 | 33.10048 | 132.86783 | 36187 ft | 373 kts | 232° |
| 2026-05-06 01:57 | 33.06784 | 132.81984 | 36168 ft | 373 kts | 232° |
| 2026-05-06 01:58 | 33.03513 | 132.77187 | 36159 ft | 373 kts | 232° |
| 2026-05-06 01:58 | 33.00093 | 132.72551 | 36161 ft | 373 kts | 229° |
| 2026-05-06 01:59 | 32.96532 | 132.68062 | 36157 ft | 372 kts | 228° |
| 2026-05-06 01:59 | 32.92981 | 132.63577 | 36164 ft | 372 kts | 229° |
| 2026-05-06 02:00 | 32.89447 | 132.59091 | 36156 ft | 372 kts | 228° |
| 2026-05-06 02:00 | 32.85905 | 132.54592 | 36162 ft | 373 kts | 228° |
| 2026-05-06 02:01 | 32.82354 | 132.50092 | 36161 ft | 373 kts | 228° |
| 2026-05-06 02:01 | 32.78792 | 132.45608 | 36158 ft | 373 kts | 228° |
| 2026-05-06 02:02 | 32.75220 | 132.41123 | 36158 ft | 373 kts | 228° |
| 2026-05-06 02:02 | 32.71652 | 132.36647 | 36159 ft | 373 kts | 228° |
| 2026-05-06 02:03 | 32.68079 | 132.32168 | 36159 ft | 373 kts | 228° |
| 2026-05-06 02:03 | 32.64528 | 132.27720 | 36159 ft | 373 kts | 228° |
| 2026-05-06 02:04 | 32.60957 | 132.23253 | 36157 ft | 373 kts | 228° |
| 2026-05-06 02:04 | 32.57381 | 132.18785 | 36151 ft | 373 kts | 228° |
| 2026-05-06 02:05 | 32.53806 | 132.14325 | 36149 ft | 373 kts | 228° |
| 2026-05-06 02:05 | 32.50226 | 132.09861 | 36157 ft | 373 kts | 227° |
| 2026-05-06 02:06 | 32.46577 | 132.05476 | 36147 ft | 374 kts | 223° |
| 2026-05-06 02:06 | 32.42298 | 132.01927 | 36158 ft | 378 kts | 215° |
| 2026-05-06 02:07 | 32.37761 | 131.98751 | 36148 ft | 379 kts | 215° |
| 2026-05-06 02:07 | 32.33231 | 131.95572 | 36147 ft | 379 kts | 215° |
| 2026-05-06 02:08 | 32.28713 | 131.92391 | 36152 ft | 378 kts | 215° |
| 2026-05-06 02:08 | 32.24187 | 131.89203 | 36146 ft | 379 kts | 215° |
| 2026-05-06 02:09 | 32.19661 | 131.86017 | 36140 ft | 378 kts | 215° |
| 2026-05-06 02:09 | 32.15141 | 131.82840 | 36144 ft | 378 kts | 215° |
| 2026-05-06 02:10 | 32.10615 | 131.79661 | 36143 ft | 378 kts | 215° |
| 2026-05-06 02:10 | 32.06092 | 131.76488 | 36144 ft | 379 kts | 215° |
| 2026-05-06 02:11 | 32.01563 | 131.73314 | 36140 ft | 379 kts | 215° |
| 2026-05-06 02:11 | 31.97061 | 131.70163 | 36135 ft | 379 kts | 215° |
| 2026-05-06 02:12 | 31.92531 | 131.66999 | 36133 ft | 379 kts | 215° |
| 2026-05-06 02:12 | 31.87992 | 131.63831 | 36132 ft | 379 kts | 215° |
| 2026-05-06 02:13 | 31.83453 | 131.60666 | 36133 ft | 380 kts | 215° |
| 2026-05-06 02:13 | 31.78902 | 131.57496 | 36154 ft | 380 kts | 215° |
| 2026-05-06 02:14 | 31.74349 | 131.54328 | 36153 ft | 381 kts | 215° |
| 2026-05-06 02:14 | 31.69781 | 131.51153 | 36147 ft | 381 kts | 215° |
| 2026-05-06 02:15 | 31.65212 | 131.47981 | 36146 ft | 381 kts | 215° |
| 2026-05-06 02:15 | 31.60644 | 131.44813 | 36142 ft | 382 kts | 215° |
| 2026-05-06 02:16 | 31.56072 | 131.41646 | 36133 ft | 382 kts | 215° |
| 2026-05-06 02:16 | 31.51489 | 131.38475 | 36128 ft | 382 kts | 215° |
| 2026-05-06 02:17 | 31.46900 | 131.35304 | 36136 ft | 383 kts | 215° |
| 2026-05-06 02:17 | 31.42337 | 131.32154 | 36126 ft | 384 kts | 214° |
| 2026-05-06 02:18 | 31.37726 | 131.28975 | 36123 ft | 384 kts | 214° |
| 2026-05-06 02:18 | 31.33120 | 131.25803 | 36120 ft | 385 kts | 214° |
| 2026-05-06 02:19 | 31.28511 | 131.22633 | 36122 ft | 385 kts | 214° |
| 2026-05-06 02:19 | 31.23894 | 131.19460 | 36115 ft | 385 kts | 214° |
| 2026-05-06 02:20 | 31.16959 | 131.14702 | 36114 ft | 385 kts | 214° |
| 2026-05-06 02:21 | 31.12335 | 131.11534 | 36110 ft | 386 kts | 214° |
| 2026-05-06 02:21 | 31.07702 | 131.08363 | 36110 ft | 386 kts | 214° |
| 2026-05-06 02:22 | 31.03060 | 131.05190 | 36106 ft | 387 kts | 214° |
| 2026-05-06 02:22 | 30.98420 | 131.02022 | 36117 ft | 387 kts | 214° |
| 2026-05-06 02:23 | 30.93763 | 130.98845 | 36102 ft | 388 kts | 213° |
| 2026-05-06 02:23 | 30.89100 | 130.95669 | 36092 ft | 389 kts | 213° |
| 2026-05-06 02:24 | 30.84430 | 130.92491 | 36096 ft | 388 kts | 213° |
| 2026-05-06 02:24 | 30.79766 | 130.89321 | 36110 ft | 389 kts | 213° |
| 2026-05-06 02:25 | 30.75093 | 130.86149 | 36106 ft | 389 kts | 213° |
| 2026-05-06 02:25 | 30.70423 | 130.82981 | 36108 ft | 389 kts | 213° |
| 2026-05-06 02:26 | 30.65745 | 130.79813 | 36104 ft | 389 kts | 213° |
| 2026-05-06 02:26 | 30.61072 | 130.76650 | 36093 ft | 389 kts | 213° |
| 2026-05-06 02:27 | 30.56388 | 130.73485 | 36100 ft | 389 kts | 213° |
| 2026-05-06 02:27 | 30.51699 | 130.70318 | 36096 ft | 390 kts | 213° |
| 2026-05-06 02:28 | 30.47008 | 130.67155 | 36098 ft | 391 kts | 213° |
| 2026-05-06 02:28 | 30.42331 | 130.64004 | 36090 ft | 392 kts | 213° |
| 2026-05-06 02:29 | 30.37615 | 130.60830 | 36082 ft | 393 kts | 213° |
| 2026-05-06 02:29 | 30.32895 | 130.57658 | 36077 ft | 392 kts | 213° |
| 2026-05-06 02:30 | 30.28185 | 130.54501 | 36077 ft | 391 kts | 212° |
| 2026-05-06 02:30 | 30.23461 | 130.51337 | 36088 ft | 393 kts | 212° |
| 2026-05-06 02:31 | 30.18728 | 130.48169 | 36076 ft | 394 kts | 212° |
| 2026-05-06 02:31 | 30.13982 | 130.44997 | 36075 ft | 394 kts | 212° |
| 2026-05-06 02:32 | 30.09231 | 130.41824 | 36078 ft | 394 kts | 212° |
| 2026-05-06 02:32 | 30.04482 | 130.38655 | 36068 ft | 395 kts | 212° |
| 2026-05-06 02:33 | 29.99722 | 130.35484 | 36074 ft | 395 kts | 212° |
| 2026-05-06 02:33 | 29.98151 | 130.34438 | 36078 ft | 395 kts | 212° |
| 2026-05-06 02:34 | 29.90194 | 130.29149 | 36074 ft | 395 kts | 212° |
| 2026-05-06 02:34 | 29.85433 | 130.25986 | 36070 ft | 395 kts | 212° |
| 2026-05-06 02:35 | 29.80693 | 130.22842 | 36071 ft | 396 kts | 212° |
| 2026-05-06 02:35 | 29.75918 | 130.19677 | 36064 ft | 396 kts | 212° |
| 2026-05-06 02:36 | 29.71146 | 130.16517 | 36060 ft | 396 kts | 212° |
| 2026-05-06 02:36 | 29.66369 | 130.13358 | 36062 ft | 397 kts | 212° |
| 2026-05-06 02:37 | 29.61580 | 130.10194 | 36071 ft | 397 kts | 212° |
| 2026-05-06 02:37 | 29.56971 | 130.06721 | 36071 ft | 396 kts | 220° |
| 2026-05-06 02:38 | 29.53075 | 130.02259 | 36058 ft | 397 kts | 226° |
| 2026-05-06 02:38 | 29.49272 | 129.97657 | 36065 ft | 397 kts | 225° |
| 2026-05-06 02:39 | 29.45457 | 129.93069 | 36054 ft | 398 kts | 225° |
| 2026-05-06 02:39 | 29.41621 | 129.88475 | 36061 ft | 399 kts | 225° |
| 2026-05-06 02:40 | 29.37774 | 129.83876 | 36062 ft | 400 kts | 225° |
| 2026-05-06 02:40 | 29.33921 | 129.79277 | 36053 ft | 401 kts | 225° |
| 2026-05-06 02:41 | 29.30053 | 129.74664 | 36049 ft | 402 kts | 225° |
| 2026-05-06 02:41 | 29.26207 | 129.70082 | 36061 ft | 402 kts | 225° |
| 2026-05-06 02:42 | 29.22320 | 129.65457 | 36055 ft | 403 kts | 225° |
| 2026-05-06 02:42 | 29.18428 | 129.60833 | 36061 ft | 404 kts | 225° |
| 2026-05-06 02:43 | 29.14525 | 129.56199 | 36056 ft | 404 kts | 225° |
| 2026-05-06 02:43 | 29.10621 | 129.51570 | 36047 ft | 405 kts | 225° |
| 2026-05-06 02:44 | 29.06705 | 129.46933 | 36048 ft | 405 kts | 225° |
| 2026-05-06 02:44 | 29.02787 | 129.42295 | 36054 ft | 406 kts | 225° |
| 2026-05-06 02:45 | 28.98854 | 129.37648 | 36056 ft | 407 kts | 225° |
| 2026-05-06 02:45 | 28.95598 | 129.33767 | 36056 ft | 407 kts | 225° |
| 2026-05-06 02:46 | 28.91699 | 129.29091 | 36058 ft | 407 kts | 225° |
| 2026-05-06 02:46 | 28.87791 | 129.24408 | 36055 ft | 407 kts | 225° |
| 2026-05-06 02:47 | 28.83878 | 129.19729 | 36055 ft | 407 kts | 225° |
| 2026-05-06 02:47 | 28.79959 | 129.15050 | 36043 ft | 408 kts | 225° |
| 2026-05-06 02:48 | 28.76041 | 129.10378 | 36049 ft | 408 kts | 225° |
| 2026-05-06 02:48 | 28.72118 | 129.05706 | 36052 ft | 408 kts | 225° |
| 2026-05-06 02:49 | 28.68180 | 129.01023 | 36050 ft | 409 kts | 225° |
| 2026-05-06 02:49 | 28.64240 | 128.96341 | 36050 ft | 410 kts | 225° |
| 2026-05-06 02:50 | 28.60286 | 128.91648 | 36047 ft | 411 kts | 225° |
| 2026-05-06 02:50 | 28.56332 | 128.86961 | 36049 ft | 411 kts | 225° |
| 2026-05-06 02:51 | 28.52370 | 128.82270 | 36051 ft | 411 kts | 225° |
| 2026-05-06 02:51 | 28.48412 | 128.77588 | 36046 ft | 411 kts | 225° |
| 2026-05-06 02:52 | 28.44445 | 128.72901 | 36047 ft | 411 kts | 225° |
| 2026-05-06 02:52 | 28.40478 | 128.68220 | 36047 ft | 412 kts | 225° |
| 2026-05-06 02:53 | 28.36502 | 128.63534 | 36043 ft | 412 kts | 225° |
| 2026-05-06 02:53 | 28.32524 | 128.58850 | 36045 ft | 412 kts | 225° |
| 2026-05-06 02:54 | 28.28574 | 128.54205 | 36047 ft | 412 kts | 224° |
| 2026-05-06 02:54 | 28.24572 | 128.49502 | 36040 ft | 412 kts | 224° |
| 2026-05-06 02:55 | 28.20613 | 128.44857 | 36043 ft | 412 kts | 224° |
| 2026-05-06 02:55 | 28.16629 | 128.40190 | 36044 ft | 412 kts | 224° |
| 2026-05-06 02:56 | 28.12636 | 128.35520 | 36042 ft | 412 kts | 224° |
| 2026-05-06 02:56 | 28.08640 | 128.30848 | 36040 ft | 413 kts | 224° |
| 2026-05-06 02:57 | 28.04641 | 128.26178 | 36041 ft | 414 kts | 224° |
| 2026-05-06 02:57 | 28.00628 | 128.21496 | 36037 ft | 415 kts | 224° |
| 2026-05-06 02:58 | 27.96610 | 128.16814 | 36035 ft | 415 kts | 223° |
| 2026-05-06 02:58 | 27.92579 | 128.12123 | 36037 ft | 416 kts | 223° |
| 2026-05-06 02:59 | 27.88546 | 128.07434 | 36033 ft | 416 kts | 223° |
| 2026-05-06 02:59 | 27.84502 | 128.02738 | 36033 ft | 417 kts | 224° |
| 2026-05-06 03:00 | 27.80451 | 127.98039 | 36033 ft | 417 kts | 224° |
| 2026-05-06 03:00 | 27.76403 | 127.93349 | 36032 ft | 417 kts | 224° |
| 2026-05-06 03:01 | 27.72348 | 127.88656 | 36035 ft | 417 kts | 224° |
| 2026-05-06 03:01 | 27.68302 | 127.83978 | 36031 ft | 416 kts | 224° |
| 2026-05-06 03:02 | 27.64254 | 127.79303 | 36030 ft | 416 kts | 224° |
| 2026-05-06 03:02 | 27.60216 | 127.74645 | 36035 ft | 415 kts | 224° |
| 2026-05-06 03:03 | 27.56178 | 127.69992 | 36039 ft | 415 kts | 224° |
| 2026-05-06 03:03 | 27.52144 | 127.65347 | 36030 ft | 414 kts | 224° |
| 2026-05-06 03:04 | 27.48028 | 127.60826 | 36028 ft | 413 kts | 218° |
| 2026-05-06 03:04 | 27.43371 | 127.57045 | 36032 ft | 413 kts | 215° |
| 2026-05-06 03:05 | 27.38684 | 127.53299 | 36038 ft | 413 kts | 216° |
| 2026-05-06 03:05 | 27.34043 | 127.49569 | 36033 ft | 413 kts | 216° |
| 2026-05-06 03:06 | 27.29358 | 127.45792 | 36031 ft | 413 kts | 216° |
| 2026-05-06 03:06 | 27.24683 | 127.42023 | 36034 ft | 413 kts | 216° |
| 2026-05-06 03:07 | 27.20011 | 127.38260 | 36033 ft | 414 kts | 216° |
| 2026-05-06 03:07 | 27.15330 | 127.34493 | 36031 ft | 414 kts | 216° |
| 2026-05-06 03:08 | 27.10648 | 127.30730 | 36027 ft | 414 kts | 216° |
| 2026-05-06 03:08 | 27.05966 | 127.26971 | 36027 ft | 414 kts | 216° |
| 2026-05-06 03:09 | 27.01285 | 127.23217 | 36031 ft | 414 kts | 216° |
| 2026-05-06 03:09 | 26.96594 | 127.19458 | 36031 ft | 414 kts | 216° |
| 2026-05-06 03:10 | 26.91905 | 127.15705 | 36027 ft | 415 kts | 216° |
| 2026-05-06 03:10 | 26.87206 | 127.11948 | 36022 ft | 415 kts | 216° |
| 2026-05-06 03:11 | 26.82508 | 127.08196 | 36029 ft | 415 kts | 216° |
| 2026-05-06 03:11 | 26.77794 | 127.04435 | 36018 ft | 416 kts | 216° |
| 2026-05-06 03:12 | 26.73070 | 127.00669 | 36019 ft | 417 kts | 216° |
| 2026-05-06 03:12 | 26.68342 | 126.96905 | 36015 ft | 418 kts | 216° |
| 2026-05-06 03:13 | 26.63598 | 126.93131 | 36012 ft | 419 kts | 216° |
| 2026-05-06 03:13 | 26.58849 | 126.89358 | 36014 ft | 420 kts | 216° |
| 2026-05-06 03:14 | 26.54115 | 126.85600 | 36014 ft | 420 kts | 216° |
| 2026-05-06 03:14 | 26.49347 | 126.81818 | 36016 ft | 421 kts | 216° |
| 2026-05-06 03:15 | 26.44563 | 126.78028 | 36012 ft | 422 kts | 216° |
| 2026-05-06 03:15 | 26.39776 | 126.74239 | 36007 ft | 423 kts | 216° |
| 2026-05-06 03:16 | 26.35047 | 126.70326 | 36015 ft | 423 kts | 219° |
| 2026-05-06 03:16 | 26.30483 | 126.66165 | 36007 ft | 425 kts | 219° |
| 2026-05-06 03:17 | 26.25905 | 126.61979 | 36009 ft | 426 kts | 219° |
| 2026-05-06 03:17 | 26.21300 | 126.57805 | 36008 ft | 427 kts | 219° |
| 2026-05-06 03:18 | 26.16682 | 126.53633 | 36009 ft | 428 kts | 219° |
| 2026-05-06 03:18 | 26.12045 | 126.49439 | 36010 ft | 430 kts | 219° |
| 2026-05-06 03:19 | 26.07416 | 126.45216 | 36013 ft | 431 kts | 219° |
| 2026-05-06 03:19 | 26.02767 | 126.40975 | 36018 ft | 433 kts | 219° |
| 2026-05-06 03:20 | 25.95771 | 126.34622 | 36022 ft | 433 kts | 219° |
| 2026-05-06 03:20 | 25.91116 | 126.30425 | 36014 ft | 434 kts | 218° |
| 2026-05-06 03:21 | 25.86435 | 126.26210 | 36011 ft | 434 kts | 218° |
| 2026-05-06 03:21 | 25.81751 | 126.21993 | 36013 ft | 433 kts | 219° |
| 2026-05-06 03:22 | 25.77076 | 126.17787 | 36011 ft | 432 kts | 219° |
| 2026-05-06 03:22 | 25.72419 | 126.13601 | 36004 ft | 431 kts | 219° |
| 2026-05-06 03:23 | 25.67773 | 126.09430 | 36004 ft | 429 kts | 219° |
| 2026-05-06 03:23 | 25.63133 | 126.05267 | 36006 ft | 428 kts | 219° |
| 2026-05-06 03:24 | 25.58502 | 126.01117 | 36000 ft | 427 kts | 219° |
| 2026-05-06 03:24 | 25.53887 | 125.96985 | 36002 ft | 427 kts | 219° |
| 2026-05-06 03:25 | 25.49271 | 125.92857 | 36009 ft | 426 kts | 219° |
| 2026-05-06 03:25 | 25.44754 | 125.88630 | 35997 ft | 426 kts | 225° |
| 2026-05-06 03:26 | 25.41196 | 125.83464 | 36008 ft | 427 kts | 238° |
| 2026-05-06 03:26 | 25.38268 | 125.77709 | 35997 ft | 427 kts | 239° |
| 2026-05-06 03:27 | 25.35338 | 125.72055 | 36000 ft | 426 kts | 238° |
| 2026-05-06 03:27 | 25.32319 | 125.66369 | 36011 ft | 425 kts | 238° |
| 2026-05-06 03:28 | 25.29330 | 125.60790 | 36002 ft | 425 kts | 238° |
| 2026-05-06 03:28 | 25.26322 | 125.55172 | 35830 ft | 426 kts | 238° |
| 2026-05-06 03:29 | 25.24802 | 125.52330 | 35222 ft | 428 kts | 238° |
| 2026-05-06 03:29 | 25.23293 | 125.49510 | 34497 ft | 428 kts | 238° |
| 2026-05-06 03:29 | 25.21778 | 125.46678 | 33717 ft | 429 kts | 238° |
| 2026-05-06 03:29 | 25.20255 | 125.43836 | 32853 ft | 430 kts | 238° |
| 2026-05-06 03:30 | 25.18735 | 125.41001 | 32005 ft | 430 kts | 238° |
| 2026-05-06 03:30 | 25.17211 | 125.38158 | 31180 ft | 430 kts | 238° |
| 2026-05-06 03:30 | 25.15686 | 125.35314 | 30309 ft | 431 kts | 238° |
| 2026-05-06 03:30 | 25.14157 | 125.32465 | 29270 ft | 432 kts | 238° |
| 2026-05-06 03:31 | 25.12623 | 125.29610 | 28225 ft | 432 kts | 238° |
| 2026-05-06 03:31 | 25.11088 | 125.26755 | 27174 ft | 433 kts | 239° |
| 2026-05-06 03:31 | 25.09480 | 125.23953 | 26106 ft | 434 kts | 234° |
| 2026-05-06 03:31 | 25.07667 | 125.21288 | 25143 ft | 433 kts | 233° |
| 2026-05-06 03:32 | 25.05846 | 125.18654 | 24324 ft | 430 kts | 233° |
| 2026-05-06 03:32 | 25.04048 | 125.16041 | 23535 ft | 425 kts | 233° |
| 2026-05-06 03:32 | 25.02281 | 125.13454 | 22656 ft | 421 kts | 233° |
| 2026-05-06 03:32 | 25.01099 | 125.11718 | 22109 ft | 417 kts | 234° |
| 2026-05-06 03:33 | 24.99394 | 125.09214 | 21339 ft | 411 kts | 233° |
| 2026-05-06 03:33 | 24.97625 | 125.06748 | 20479 ft | 408 kts | 232° |
| 2026-05-06 03:33 | 24.95831 | 125.04355 | 19709 ft | 403 kts | 231° |
| 2026-05-06 03:33 | 24.94040 | 125.01996 | 18987 ft | 399 kts | 231° |
| 2026-05-06 03:34 | 24.92268 | 124.99665 | 18262 ft | 395 kts | 231° |
| 2026-05-06 03:34 | 24.90517 | 124.97351 | 17444 ft | 391 kts | 231° |
| 2026-05-06 03:34 | 24.88792 | 124.95062 | 16682 ft | 386 kts | 231° |
| 2026-05-06 03:34 | 24.87097 | 124.92807 | 15981 ft | 380 kts | 232° |
| 2026-05-06 03:35 | 24.85422 | 124.90574 | 15284 ft | 376 kts | 232° |
| 2026-05-06 03:35 | 24.83768 | 124.88368 | 14606 ft | 371 kts | 232° |
| 2026-05-06 03:35 | 24.82134 | 124.86187 | 13936 ft | 367 kts | 232° |
| 2026-05-06 03:35 | 24.80515 | 124.84028 | 13191 ft | 364 kts | 232° |
| 2026-05-06 03:36 | 24.78917 | 124.81896 | 12482 ft | 360 kts | 232° |
| 2026-05-06 03:36 | 24.77333 | 124.79784 | 11820 ft | 356 kts | 232° |
| 2026-05-06 03:36 | 24.75764 | 124.77693 | 11164 ft | 352 kts | 231° |
| 2026-05-06 03:36 | 24.74242 | 124.75666 | 11036 ft | 335 kts | 231° |
| 2026-05-06 03:37 | 24.72791 | 124.73738 | 10874 ft | 322 kts | 231° |
| 2026-05-06 03:37 | 24.71383 | 124.71864 | 10749 ft | 313 kts | 232° |
| 2026-05-06 03:37 | 24.70011 | 124.70039 | 10616 ft | 306 kts | 231° |
| 2026-05-06 03:37 | 24.68669 | 124.68254 | 10490 ft | 298 kts | 231° |
| 2026-05-06 03:38 | 24.67372 | 124.66531 | 10359 ft | 287 kts | 231° |
| 2026-05-06 03:38 | 24.66128 | 124.64878 | 10251 ft | 276 kts | 231° |
| 2026-05-06 03:38 | 24.64924 | 124.63278 | 10136 ft | 267 kts | 231° |
| 2026-05-06 03:38 | 24.63757 | 124.61728 | 10020 ft | 259 kts | 231° |
| 2026-05-06 03:39 | 24.62611 | 124.60207 | 9741 ft | 258 kts | 231° |
| 2026-05-06 03:39 | 24.61473 | 124.58696 | 9450 ft | 257 kts | 231° |
| 2026-05-06 03:39 | 24.60334 | 124.57184 | 9160 ft | 257 kts | 231° |
| 2026-05-06 03:39 | 24.59189 | 124.55665 | 8858 ft | 259 kts | 231° |
| 2026-05-06 03:40 | 24.58035 | 124.54135 | 8555 ft | 261 kts | 231° |
| 2026-05-06 03:40 | 24.56870 | 124.52590 | 8210 ft | 263 kts | 231° |
| 2026-05-06 03:40 | 24.55709 | 124.51051 | 7908 ft | 261 kts | 231° |
| 2026-05-06 03:40 | 24.54550 | 124.49516 | 7603 ft | 260 kts | 231° |
| 2026-05-06 03:41 | 24.53398 | 124.47992 | 7303 ft | 258 kts | 231° |
| 2026-05-06 03:41 | 24.52252 | 124.46476 | 7010 ft | 258 kts | 231° |
| 2026-05-06 03:41 | 24.51066 | 124.45007 | 6689 ft | 258 kts | 222° |
| 2026-05-06 03:41 | 24.49498 | 124.44022 | 6326 ft | 263 kts | 204° |
| 2026-05-06 03:42 | 24.47803 | 124.43265 | 6023 ft | 263 kts | 204° |
| 2026-05-06 03:42 | 24.46105 | 124.42502 | 5736 ft | 264 kts | 205° |
| 2026-05-06 03:42 | 24.44389 | 124.41724 | 5415 ft | 270 kts | 205° |
| 2026-05-06 03:42 | 24.42645 | 124.40929 | 5051 ft | 273 kts | 204° |
| 2026-05-06 03:43 | 24.40896 | 124.40133 | 4755 ft | 271 kts | 205° |
| 2026-05-06 03:43 | 24.39280 | 124.39120 | 4430 ft | 266 kts | 224° |
| 2026-05-06 03:43 | 24.38025 | 124.37682 | 4321 ft | 256 kts | 228° |
| 2026-05-06 03:43 | 24.36829 | 124.36272 | 4188 ft | 248 kts | 229° |
| 2026-05-06 03:44 | 24.35667 | 124.34909 | 4096 ft | 241 kts | 229° |
| 2026-05-06 03:44 | 24.34533 | 124.33585 | 3976 ft | 236 kts | 228° |
| 2026-05-06 03:44 | 24.33432 | 124.32307 | 3911 ft | 224 kts | 228° |
| 2026-05-06 03:44 | 24.32400 | 124.31112 | 3789 ft | 211 kts | 228° |
| 2026-05-06 03:45 | 24.31397 | 124.29950 | 3600 ft | 209 kts | 229° |
| 2026-05-06 03:45 | 24.30396 | 124.28790 | 3335 ft | 208 kts | 229° |
| 2026-05-06 03:45 | 24.29461 | 124.27626 | 3098 ft | 198 kts | 236° |
| 2026-05-06 03:45 | 24.28865 | 124.26301 | 2938 ft | 193 kts | 255° |
| 2026-05-06 03:46 | 24.28693 | 124.24868 | 2683 ft | 194 kts | 273° |
| 2026-05-06 03:46 | 24.28956 | 124.23415 | 2475 ft | 195 kts | 290° |
| 2026-05-06 03:46 | 24.29597 | 124.22133 | 2168 ft | 189 kts | 308° |
| 2026-05-06 03:46 | 24.30532 | 124.21163 | 1831 ft | 182 kts | 324° |
| 2026-05-06 03:47 | 24.31605 | 124.20574 | 1668 ft | 163 kts | 341° |
| 2026-05-06 03:47 | 24.32634 | 124.20361 | 1532 ft | 142 kts | 353° |
| 2026-05-06 03:47 | 24.33598 | 124.20416 | 1259 ft | 139 kts | 8° |
| 2026-05-06 03:47 | 24.34515 | 124.20742 | 1103 ft | 141 kts | 22° |
| 2026-05-06 03:48 | 24.35370 | 124.21264 | 991 ft | 139 kts | 32° |
| 2026-05-06 03:48 | 24.36154 | 124.21862 | 845 ft | 137 kts | 32° |
| 2026-05-06 03:48 | 24.36952 | 124.22441 | 678 ft | 136 kts | 34° |
| 2026-05-06 03:48 | 24.37719 | 124.23025 | 473 ft | 132 kts | 36° |
| 2026-05-06 03:49 | 24.38453 | 124.23590 | 283 ft | 128 kts | 36° |
| 2026-05-06 03:49 | 24.39196 | 124.24161 | 132 ft | 129 kts | 36° |
| 2026-05-06 03:49 | 24.39835 | 124.24661 | 101 ft | 90 kts | 35° |
| 2026-05-06 03:49 | 24.39986 | 124.24837 | 103 ft | 14 kts | 120° |
| 2026-05-06 03:50 | 24.39929 | 124.24926 | 101 ft | 9 kts | 136° |
| 2026-05-06 03:50 | 24.39870 | 124.24911 | 98 ft | 10 kts | 216° |
| 2026-05-06 03:50 | 24.39802 | 124.24857 | 100 ft | 13 kts | 216° |
| 2026-05-06 03:50 | 24.39728 | 124.24799 | 101 ft | 14 kts | 215° |
| 2026-05-06 03:51 | 24.39647 | 124.24734 | 103 ft | 15 kts | 217° |
| 2026-05-06 03:51 | 24.39565 | 124.24668 | 107 ft | 15 kts | 215° |
| 2026-05-06 03:51 | 24.39483 | 124.24605 | 112 ft | 14 kts | 215° |
| 2026-05-06 03:51 | 24.39405 | 124.24545 | 116 ft | 13 kts | 214° |
| 2026-05-06 03:52 | 24.39328 | 124.24486 | 115 ft | 13 kts | 214° |
| 2026-05-06 03:52 | 24.39245 | 124.24420 | 114 ft | 16 kts | 215° |
| 2026-05-06 03:52 | 24.39152 | 124.24348 | 115 ft | 9 kts | 213° |
| 2026-05-06 03:52 | 24.39104 | 124.24377 | 114 ft | 9 kts | 126° |
| 2026-05-06 03:53 | 24.39065 | 124.24434 | 113 ft | 10 kts | 125° |
| 2026-05-06 03:53 | 24.39052 | 124.24453 | 114 ft | 3 kts | 126° |
| 2026-05-06 03:53 | 24.39050 | 124.24457 | 115 ft | 0 kts | 126° |